createdAt,value
2018-05-23T00:00:07.431Z,76.57
2018-05-23T00:01:07.352Z,76.39
2018-05-23T00:02:07.341Z,76.48
2018-05-23T00:03:07.307Z,75.91
2018-05-23T00:04:07.280Z,75.56
2018-05-23T00:05:07.536Z,75.76
2018-05-23T00:06:07.227Z,75.66
2018-05-23T00:07:07.197Z,75.85
2018-05-23T00:08:07.179Z,75.52
2018-05-23T00:09:07.146Z,76.14
2018-05-23T00:10:07.168Z,75.95
2018-05-23T00:11:07.153Z,76.20
2018-05-23T00:12:07.124Z,76.77
2018-05-23T00:13:07.043Z,76.77
2018-05-23T00:14:07.024Z,76.62
2018-05-23T00:15:06.991Z,76.23
2018-05-23T00:16:06.975Z,76.77
2018-05-23T00:17:07.039Z,76.62
2018-05-23T00:18:06.932Z,76.62
2018-05-23T00:19:06.955Z,76.71
2018-05-23T00:20:06.862Z,76.52
2018-05-23T00:21:07.494Z,76.57
2018-05-23T00:22:06.815Z,76.42
2018-05-23T00:23:06.783Z,77.15
2018-05-23T00:24:06.803Z,77.00
2018-05-23T00:25:06.736Z,77.57
2018-05-23T00:26:06.707Z,77.48
2018-05-23T00:27:06.684Z,77.34
2018-05-23T00:28:06.698Z,77.92
2018-05-23T00:29:06.628Z,78.01
2018-05-23T00:30:06.673Z,77.53
2018-05-23T00:31:06.578Z,78.30
2018-05-23T00:32:06.568Z,77.82
2018-05-23T00:33:06.528Z,78.01
2018-05-23T00:34:06.518Z,78.49
2018-05-23T00:35:06.532Z,78.87
2018-05-23T00:36:06.454Z,78.87
2018-05-23T00:37:06.423Z,78.87
2018-05-23T00:38:06.414Z,79.35
2018-05-23T00:39:06.365Z,79.73
2018-05-23T00:40:06.385Z,80.11
2018-05-23T00:41:06.316Z,80.11
2018-05-23T00:42:06.289Z,80.50
2018-05-23T00:43:06.318Z,79.98
2018-05-23T00:44:06.244Z,80.46
2018-05-23T00:45:06.213Z,80.93
2018-05-23T00:46:06.191Z,80.65
2018-05-23T00:47:06.158Z,81.22
2018-05-23T00:48:06.175Z,81.51
2018-05-23T00:49:06.110Z,82.18
2018-05-23T00:50:06.082Z,82.08
2018-05-23T00:51:06.057Z,81.99
2018-05-23T00:52:06.076Z,81.79
2018-05-23T00:53:06.007Z,82.65
2018-05-23T00:54:06.025Z,83.04
2018-05-23T00:55:05.954Z,82.37
2018-05-23T00:56:05.928Z,82.84
2018-05-23T00:57:05.901Z,82.94
2018-05-23T00:58:05.871Z,82.75
2018-05-23T00:59:05.889Z,82.56
2018-05-23T01:00:05.822Z,82.56
2018-05-23T01:01:05.856Z,81.99
2018-05-23T01:02:05.768Z,82.28
2018-05-23T01:03:05.747Z,81.60
2018-05-23T01:04:05.721Z,81.51
2018-05-23T01:05:05.689Z,80.93
2018-05-23T01:06:05.720Z,80.74
2018-05-23T01:07:05.649Z,80.79
2018-05-23T01:08:05.616Z,80.84
2018-05-23T01:09:05.587Z,80.74
2018-05-23T01:10:05.560Z,81.13
2018-05-23T01:11:05.576Z,81.22
2018-05-23T01:12:05.505Z,81.60
2018-05-23T01:13:05.484Z,82.28
2018-05-23T01:14:05.453Z,81.60
2018-05-23T01:15:05.424Z,81.79
2018-05-23T01:16:05.557Z,81.60
2018-05-23T01:17:05.378Z,81.70
2018-05-23T01:18:05.359Z,81.99
2018-05-23T01:19:05.320Z,81.41
2018-05-23T01:20:05.997Z,81.51
2018-05-23T01:21:05.326Z,81.41
2018-05-23T01:22:05.238Z,81.60
2018-05-23T01:23:05.219Z,81.41
2018-05-23T01:24:05.198Z,81.60
2018-05-23T01:25:05.160Z,81.79
2018-05-23T01:26:05.183Z,81.89
2018-05-23T01:27:05.155Z,82.08
2018-05-23T01:28:05.081Z,81.95
2018-05-23T01:29:05.102Z,82.32
2018-05-23T01:30:05.035Z,82.52
2018-05-23T01:31:04.999Z,82.61
2018-05-23T01:32:05.021Z,83.00
2018-05-23T01:33:04.960Z,82.81
2018-05-23T01:34:04.921Z,83.47
2018-05-23T01:35:04.892Z,83.57
2018-05-23T01:36:04.877Z,83.47
2018-05-23T01:37:04.902Z,83.28
2018-05-23T01:38:04.813Z,83.28
2018-05-23T01:39:04.804Z,83.76
2018-05-23T01:40:04.760Z,83.67
2018-05-23T01:41:04.745Z,84.52
2018-05-23T01:42:05.552Z,84.14
2018-05-23T01:43:04.681Z,84.23
2018-05-23T01:44:04.707Z,84.23
2018-05-23T01:45:04.632Z,84.33
2018-05-23T01:46:04.601Z,84.14
2018-05-23T01:47:04.591Z,84.05
2018-05-23T01:48:04.559Z,84.14
2018-05-23T01:49:04.630Z,84.43
2018-05-23T01:50:04.508Z,84.14
2018-05-23T01:51:04.471Z,84.33
2018-05-23T01:52:04.442Z,84.52
2018-05-23T01:53:04.479Z,84.23
2018-05-23T01:54:04.445Z,85.00
2018-05-23T01:55:04.361Z,84.81
2018-05-23T01:56:05.014Z,85.10
2018-05-23T01:57:04.316Z,84.52
2018-05-23T01:58:04.282Z,84.81
2018-05-23T01:59:04.309Z,85.10
2018-05-23T02:00:04.283Z,84.72
2018-05-23T02:01:04.201Z,84.72
2018-05-23T02:02:04.182Z,84.91
2018-05-23T02:03:04.149Z,85.10
2018-05-23T02:04:04.125Z,85.38
2018-05-23T02:05:04.157Z,85.38
2018-05-23T02:06:04.077Z,85.38
2018-05-23T02:07:04.056Z,85.58
2018-05-23T02:08:04.015Z,85.48
2018-05-23T02:09:04.037Z,85.77
2018-05-23T02:10:03.961Z,86.05
2018-05-23T02:11:03.932Z,85.77
2018-05-23T02:12:03.950Z,85.38
2018-05-23T02:13:03.894Z,85.96
2018-05-23T02:14:03.909Z,86.05
2018-05-23T02:15:03.831Z,86.43
2018-05-23T02:16:03.803Z,86.05
2018-05-23T02:17:03.831Z,86.53
2018-05-23T02:18:03.759Z,85.96
2018-05-23T02:19:03.720Z,86.05
2018-05-23T02:20:03.694Z,86.15
2018-05-23T02:21:03.670Z,86.53
2018-05-23T02:22:03.705Z,86.43
2018-05-23T02:23:03.619Z,86.24
2018-05-23T02:24:03.583Z,86.15
2018-05-23T02:25:03.574Z,86.15
2018-05-23T02:26:03.580Z,86.34
2018-05-23T02:27:03.512Z,86.63
2018-05-23T02:28:03.530Z,86.91
2018-05-23T02:29:03.452Z,86.72
2018-05-23T02:30:03.425Z,86.53
2018-05-23T02:31:03.403Z,86.63
2018-05-23T02:32:04.007Z,86.87
2018-05-23T02:33:03.405Z,87.01
2018-05-23T02:34:03.329Z,87.25
2018-05-23T02:35:03.292Z,87.25
2018-05-23T02:36:03.309Z,87.15
2018-05-23T02:37:03.243Z,86.87
2018-05-23T02:38:03.210Z,87.35
2018-05-23T02:39:03.229Z,87.73
2018-05-23T02:40:03.208Z,88.01
2018-05-23T02:41:03.131Z,87.73
2018-05-23T02:42:03.157Z,88.30
2018-05-23T02:43:03.083Z,88.30
2018-05-23T02:44:03.092Z,88.40
2018-05-23T02:45:03.023Z,88.40
2018-05-23T02:46:02.996Z,88.49
2018-05-23T02:47:03.052Z,88.49
2018-05-23T02:48:02.992Z,88.78
2018-05-23T02:49:02.912Z,89.06
2018-05-23T02:50:02.936Z,89.54
2018-05-23T02:51:02.857Z,89.25
2018-05-23T02:52:02.839Z,89.35
2018-05-23T02:53:02.806Z,89.35
2018-05-23T02:54:02.784Z,89.45
2018-05-23T02:55:02.797Z,89.83
2018-05-23T02:56:02.725Z,89.83
2018-05-23T02:57:02.713Z,89.35
2018-05-23T02:58:02.713Z,89.35
2018-05-23T02:59:02.644Z,89.54
2018-05-23T03:00:02.621Z,89.06
2018-05-23T03:01:02.592Z,89.45
2018-05-23T03:02:02.573Z,89.35
2018-05-23T03:03:02.610Z,89.73
2018-05-23T03:04:02.558Z,89.59
2018-05-23T03:05:02.481Z,89.50
2018-05-23T03:06:02.457Z,89.88
2018-05-23T03:07:02.431Z,90.55
2018-05-23T03:08:02.397Z,90.36
2018-05-23T03:09:02.434Z,90.45
2018-05-23T03:10:02.348Z,90.93
2018-05-23T03:11:02.323Z,91.02
2018-05-23T03:12:02.303Z,91.21
2018-05-23T03:13:02.274Z,91.02
2018-05-23T03:14:02.287Z,91.02
2018-05-23T03:15:02.214Z,91.21
2018-05-23T03:16:02.194Z,90.93
2018-05-23T03:17:02.156Z,91.12
2018-05-23T03:18:02.577Z,90.40
2018-05-23T03:19:02.105Z,90.17
2018-05-23T03:20:03.015Z,89.83
2018-05-23T03:21:02.051Z,90.50
2018-05-23T03:22:03.079Z,89.83
2018-05-23T03:23:02.042Z,89.92
2018-05-23T03:24:01.968Z,89.83
2018-05-23T03:25:02.076Z,89.64
2018-05-23T03:26:01.920Z,89.64
2018-05-23T03:27:01.896Z,90.02
2018-05-23T03:28:02.529Z,89.92
2018-05-23T03:29:01.836Z,90.02
2018-05-23T03:30:01.845Z,89.64
2018-05-23T03:31:01.832Z,89.83
2018-05-23T03:32:02.069Z,90.02
2018-05-23T03:33:01.738Z,90.55
2018-05-23T03:34:01.698Z,90.45
2018-05-23T03:35:02.518Z,90.26
2018-05-23T03:36:01.699Z,90.45
2018-05-23T03:37:02.513Z,91.12
2018-05-23T03:38:01.604Z,90.40
2018-05-23T03:39:02.090Z,90.31
2018-05-23T03:40:01.539Z,90.40
2018-05-23T03:41:01.509Z,90.59
2018-05-23T03:42:01.567Z,90.40
2018-05-23T03:43:01.519Z,90.31
2018-05-23T03:44:01.484Z,90.11
2018-05-23T03:45:02.023Z,90.21
2018-05-23T03:46:01.377Z,89.45
2018-05-23T03:47:01.354Z,89.64
2018-05-23T03:48:02.019Z,89.54
2018-05-23T03:49:02.021Z,89.73
2018-05-23T03:50:01.268Z,89.73
2018-05-23T03:51:02.016Z,89.83
2018-05-23T03:52:01.214Z,89.92
2018-05-23T03:53:01.193Z,89.64
2018-05-23T03:54:01.198Z,89.25
2018-05-23T03:55:02.071Z,89.30
2018-05-23T03:56:01.129Z,89.30
2018-05-23T03:57:01.080Z,88.34
2018-05-23T03:58:02.034Z,88.06
2018-05-23T03:59:01.025Z,88.06
2018-05-23T04:00:01.055Z,87.96
2018-05-23T04:01:01.518Z,87.68
2018-05-23T04:02:00.948Z,88.15
2018-05-23T04:03:00.919Z,87.68
2018-05-23T04:04:00.895Z,87.68
2018-05-23T04:05:00.925Z,87.58
2018-05-23T04:06:00.840Z,87.87
2018-05-23T04:07:00.815Z,87.20
2018-05-23T04:08:00.794Z,87.20
2018-05-23T04:09:00.761Z,86.91
2018-05-23T04:10:00.781Z,87.20
2018-05-23T04:11:01.532Z,86.91
2018-05-23T04:12:00.681Z,87.53
2018-05-23T04:13:00.702Z,87.15
2018-05-23T04:14:00.626Z,87.24
2018-05-23T04:15:00.602Z,87.24
2018-05-23T04:16:00.587Z,87.05
2018-05-23T04:17:00.600Z,87.34
2018-05-23T04:18:00.568Z,87.24
2018-05-23T04:19:00.504Z,86.47
2018-05-23T04:20:00.471Z,86.67
2018-05-23T04:21:00.485Z,86.76
2018-05-23T04:22:00.423Z,86.67
2018-05-23T04:23:00.393Z,86.52
2018-05-23T04:24:00.441Z,85.38
2018-05-23T04:25:00.400Z,85.38
2018-05-23T04:26:00.356Z,85.09
2018-05-23T04:27:00.286Z,84.89
2018-05-23T04:28:00.265Z,84.52
2018-05-23T04:29:00.233Z,84.42
2018-05-23T04:30:00.212Z,84.99
2018-05-23T04:31:00.244Z,84.80
2018-05-23T04:32:00.157Z,84.80
2018-05-23T04:33:00.131Z,84.61
2018-05-23T04:34:00.157Z,84.61
2018-05-23T04:35:00.081Z,84.61
2018-05-23T04:36:00.067Z,85.75
2018-05-23T04:37:00.082Z,85.66
2018-05-23T04:38:00.062Z,85.57
2018-05-23T04:38:59.975Z,85.38
2018-05-23T04:40:00.001Z,85.75
2018-05-23T04:40:59.922Z,85.47
2018-05-23T04:41:59.965Z,85.85
2018-05-23T04:42:59.928Z,85.38
2018-05-23T04:43:59.847Z,85.66
2018-05-23T04:44:59.824Z,85.75
2018-05-23T04:45:59.794Z,85.18
2018-05-23T04:46:59.816Z,85.18
2018-05-23T04:47:59.743Z,85.38
2018-05-23T04:48:59.723Z,85.28
2018-05-23T04:49:59.816Z,85.47
2018-05-23T04:50:59.671Z,85.18
2018-05-23T04:51:59.641Z,85.38
2018-05-23T04:52:59.656Z,85.47
2018-05-23T04:54:00.529Z,85.41
2018-05-23T04:54:59.605Z,85.13
2018-05-23T04:55:59.540Z,84.55
2018-05-23T04:56:59.517Z,84.36
2018-05-23T04:57:59.543Z,83.98
2018-05-23T04:58:59.463Z,84.46
2018-05-23T04:59:59.498Z,84.55
2018-05-23T05:00:59.409Z,84.55
2018-05-23T05:01:59.386Z,83.60
2018-05-23T05:02:59.362Z,83.22
2018-05-23T05:03:59.337Z,84.27
2018-05-23T05:04:59.603Z,84.46
2018-05-23T05:05:59.285Z,83.73
2018-05-23T05:06:59.263Z,84.12
2018-05-23T05:07:59.230Z,83.45
2018-05-23T05:08:59.219Z,83.26
2018-05-23T05:09:59.608Z,83.26
2018-05-23T05:10:59.156Z,83.54
2018-05-23T05:11:59.133Z,83.06
2018-05-23T05:12:59.108Z,82.68
2018-05-23T05:13:59.081Z,82.59
2018-05-23T05:14:59.584Z,82.78
2018-05-23T05:15:59.037Z,82.82
2018-05-23T05:16:59.005Z,82.15
2018-05-23T05:17:59.535Z,82.24
2018-05-23T05:18:58.957Z,82.34
2018-05-23T05:19:58.937Z,82.15
2018-05-23T05:20:58.905Z,82.24
2018-05-23T05:21:58.929Z,82.15
2018-05-23T05:22:58.872Z,82.06
2018-05-23T05:23:58.829Z,81.57
2018-05-23T05:24:58.862Z,81.29
2018-05-23T05:25:58.825Z,81.48
2018-05-23T05:26:58.757Z,80.94
2018-05-23T05:27:58.735Z,80.85
2018-05-23T05:28:58.746Z,80.56
2018-05-23T05:29:58.687Z,80.94
2018-05-23T05:30:58.706Z,80.85
2018-05-23T05:31:59.443Z,80.76
2018-05-23T05:32:58.617Z,80.37
2018-05-23T05:33:58.587Z,80.08
2018-05-23T05:34:58.627Z,79.80
2018-05-23T05:35:58.539Z,78.93
2018-05-23T05:36:58.509Z,78.93
2018-05-23T05:37:58.542Z,79.51
2018-05-23T05:38:58.476Z,79.80
2018-05-23T05:39:58.455Z,79.03
2018-05-23T05:40:58.413Z,79.70
2018-05-23T05:41:58.389Z,80.03
2018-05-23T05:42:58.410Z,78.97
2018-05-23T05:43:58.341Z,78.40
2018-05-23T05:44:58.320Z,78.40
2018-05-23T05:45:58.294Z,78.02
2018-05-23T05:46:58.364Z,78.11
2018-05-23T05:47:58.309Z,78.11
2018-05-23T05:48:58.220Z,78.20
2018-05-23T05:49:58.193Z,78.11
2018-05-23T05:50:58.169Z,78.49
2018-05-23T05:51:58.179Z,78.20
2018-05-23T05:52:58.165Z,78.34
2018-05-23T05:53:58.095Z,77.76
2018-05-23T05:54:58.117Z,76.62
2018-05-23T05:55:58.048Z,77.19
2018-05-23T05:56:58.026Z,77.58
2018-05-23T05:57:58.000Z,77.38
2018-05-23T05:58:57.982Z,76.90
2018-05-23T05:59:58.102Z,77.38
2018-05-23T06:00:57.935Z,77.67
2018-05-23T06:01:57.978Z,76.94
2018-05-23T06:02:57.880Z,76.37
2018-05-23T06:03:57.859Z,76.07
2018-05-23T06:04:57.891Z,75.89
2018-05-23T06:05:57.808Z,75.98
2018-05-23T06:06:57.781Z,76.07
2018-05-23T06:07:57.762Z,76.27
2018-05-23T06:08:57.745Z,76.07
2018-05-23T06:09:57.877Z,75.40
2018-05-23T06:10:57.720Z,74.10
2018-05-23T06:11:57.683Z,73.72
2018-05-23T06:12:57.644Z,73.43
2018-05-23T06:13:57.624Z,73.33
2018-05-23T06:14:57.653Z,73.04
2018-05-23T06:15:57.569Z,72.95
2018-05-23T06:16:57.552Z,72.95
2018-05-23T06:17:57.524Z,71.98
2018-05-23T06:18:57.514Z,71.89
2018-05-23T06:19:57.519Z,71.98
2018-05-23T06:20:57.517Z,72.79
2018-05-23T06:21:58.047Z,71.45
2018-05-23T06:22:57.413Z,72.41
2018-05-23T06:23:57.398Z,71.45
2018-05-23T06:24:57.363Z,71.64
2018-05-23T06:25:57.618Z,71.64
2018-05-23T06:26:57.316Z,70.87
2018-05-23T06:27:57.391Z,70.49
2018-05-23T06:28:57.277Z,69.81
2018-05-23T06:29:57.250Z,70.29
2018-05-23T06:30:57.605Z,70.29
2018-05-23T06:31:57.203Z,70.39
2018-05-23T06:32:57.238Z,70.29
2018-05-23T06:33:57.168Z,70.14
2018-05-23T06:34:57.143Z,70.90
2018-05-23T06:35:58.054Z,69.56
2018-05-23T06:36:57.089Z,69.85
2018-05-23T06:37:57.128Z,70.33
2018-05-23T06:38:57.039Z,69.95
2018-05-23T06:39:57.028Z,69.56
2018-05-23T06:40:56.997Z,69.66
2018-05-23T06:41:56.980Z,70.14
2018-05-23T06:42:57.002Z,69.85
2018-05-23T06:43:56.933Z,69.85
2018-05-23T06:44:56.913Z,69.56
2018-05-23T06:45:56.933Z,69.46
2018-05-23T06:46:56.869Z,69.75
2018-05-23T06:47:56.840Z,69.56
2018-05-23T06:48:56.818Z,69.85
2018-05-23T06:49:56.914Z,69.21
2018-05-23T06:50:56.789Z,69.12
2018-05-23T06:51:56.749Z,69.21
2018-05-23T06:52:56.726Z,69.31
2018-05-23T06:53:56.703Z,68.35
2018-05-23T06:54:56.731Z,68.44
2018-05-23T06:55:56.661Z,68.44
2018-05-23T06:56:56.637Z,68.86
2018-05-23T06:57:56.615Z,68.44
2018-05-23T06:58:56.591Z,68.48
2018-05-23T06:59:56.618Z,68.57
2018-05-23T07:00:56.550Z,67.61
2018-05-23T07:01:56.524Z,66.55
2018-05-23T07:02:56.505Z,66.55
2018-05-23T07:03:56.480Z,66.55
2018-05-23T07:04:56.514Z,65.97
2018-05-23T07:05:56.503Z,66.36
2018-05-23T07:06:56.417Z,66.07
2018-05-23T07:07:56.396Z,66.07
2018-05-23T07:08:56.369Z,65.20
2018-05-23T07:09:56.397Z,65.50
2018-05-23T07:10:56.382Z,65.78
2018-05-23T07:11:56.306Z,66.74
2018-05-23T07:12:56.286Z,66.94
2018-05-23T07:13:56.257Z,66.17
2018-05-23T07:14:56.243Z,66.07
2018-05-23T07:15:56.263Z,66.84
2018-05-23T07:16:56.199Z,65.59
2018-05-23T07:17:56.247Z,65.69
2018-05-23T07:18:56.160Z,65.30
2018-05-23T07:19:57.967Z,65.72
2018-05-23T07:20:56.108Z,66.10
2018-05-23T07:21:56.097Z,65.33
2018-05-23T07:22:56.102Z,64.86
2018-05-23T07:23:56.045Z,65.24
2018-05-23T07:24:56.016Z,65.53
2018-05-23T07:25:56.065Z,64.76
2018-05-23T07:26:55.983Z,65.20
2018-05-23T07:27:56.002Z,65.05
2018-05-23T07:28:55.948Z,65.24
2018-05-23T07:29:55.905Z,65.33
2018-05-23T07:30:55.979Z,65.43
2018-05-23T07:31:55.864Z,65.05
2018-05-23T07:32:55.888Z,65.24
2018-05-23T07:33:55.830Z,64.56
2018-05-23T07:34:55.798Z,65.24
2018-05-23T07:35:55.782Z,65.72
2018-05-23T07:36:55.798Z,65.43
2018-05-23T07:37:55.777Z,65.08
2018-05-23T07:38:55.766Z,64.79
2018-05-23T07:39:55.691Z,63.92
2018-05-23T07:40:55.673Z,64.02
2018-05-23T07:41:55.652Z,62.96
2018-05-23T07:42:55.628Z,62.74
2018-05-23T07:43:55.646Z,63.06
2018-05-23T07:44:55.589Z,63.15
2018-05-23T07:45:56.189Z,63.73
2018-05-23T07:46:55.543Z,64.21
2018-05-23T07:47:55.520Z,64.21
2018-05-23T07:48:55.538Z,64.21
2018-05-23T07:49:55.482Z,61.32
2018-05-23T07:50:55.474Z,62.09
2018-05-23T07:51:55.624Z,62.77
2018-05-23T07:52:55.409Z,62.77
2018-05-23T07:53:55.394Z,62.87
2018-05-23T07:54:55.368Z,63.44
2018-05-23T07:55:55.626Z,62.67
2018-05-23T07:56:55.330Z,62.29
2018-05-23T07:57:55.310Z,62.80
2018-05-23T07:58:55.280Z,63.18
2018-05-23T07:59:55.308Z,62.80
2018-05-23T08:00:56.077Z,61.93
2018-05-23T08:01:55.218Z,60.68
2018-05-23T08:02:55.200Z,59.81
2018-05-23T08:03:55.179Z,59.91
2018-05-23T08:04:55.193Z,60.10
2018-05-23T08:05:55.139Z,60.20
2018-05-23T08:06:55.124Z,58.17
2018-05-23T08:07:55.143Z,58.75
2018-05-23T08:08:55.102Z,58.47
2018-05-23T08:09:55.058Z,58.85
2018-05-23T08:10:55.072Z,59.27
2018-05-23T08:11:55.007Z,59.23
2018-05-23T08:12:54.986Z,58.97
2018-05-23T08:13:55.577Z,58.88
2018-05-23T08:14:54.943Z,58.69
2018-05-23T08:15:54.966Z,58.40
2018-05-23T08:16:54.948Z,58.01
2018-05-23T08:17:54.887Z,57.62
2018-05-23T08:18:55.584Z,57.53
2018-05-23T08:19:54.837Z,57.92
2018-05-23T08:20:54.818Z,57.92
2018-05-23T08:21:54.847Z,57.82
2018-05-23T08:22:54.817Z,57.43
2018-05-23T08:23:54.756Z,57.14
2018-05-23T08:24:54.785Z,56.76
2018-05-23T08:25:54.765Z,57.05
2018-05-23T08:26:54.705Z,57.07
2018-05-23T08:27:54.677Z,56.79
2018-05-23T08:28:54.713Z,55.99
2018-05-23T08:29:54.729Z,56.18
2018-05-23T08:30:54.673Z,56.30
2018-05-23T08:31:54.590Z,55.51
2018-05-23T08:32:54.611Z,55.82
2018-05-23T08:33:54.554Z,56.01
2018-05-23T08:34:54.531Z,56.21
2018-05-23T08:35:54.509Z,56.11
2018-05-23T08:36:55.089Z,56.01
2018-05-23T08:37:54.525Z,56.11
2018-05-23T08:38:54.449Z,57.07
2018-05-23T08:39:54.427Z,55.54
2018-05-23T08:40:54.404Z,55.63
2018-05-23T08:41:54.392Z,55.63
2018-05-23T08:42:54.412Z,55.18
2018-05-23T08:43:54.348Z,55.27
2018-05-23T08:44:54.357Z,55.46
2018-05-23T08:45:54.332Z,55.54
2018-05-23T08:46:54.283Z,56.04
2018-05-23T08:47:54.406Z,54.66
2018-05-23T08:48:54.284Z,54.60
2018-05-23T08:49:55.085Z,54.79
2018-05-23T08:50:54.199Z,54.02
2018-05-23T08:51:54.177Z,52.76
2018-05-23T08:52:54.203Z,53.41
2018-05-23T08:53:54.144Z,54.02
2018-05-23T08:54:55.088Z,54.79
2018-05-23T08:55:54.100Z,54.40
2018-05-23T08:56:54.129Z,54.60
2018-05-23T08:57:54.101Z,54.60
2018-05-23T08:58:54.047Z,55.27
2018-05-23T08:59:54.616Z,54.40
2018-05-23T09:00:54.043Z,54.50
2018-05-23T09:01:54.036Z,54.40
2018-05-23T09:02:53.964Z,54.60
2018-05-23T09:03:53.933Z,53.63
2018-05-23T09:04:54.625Z,53.44
2018-05-23T09:05:53.897Z,53.63
2018-05-23T09:06:53.931Z,54.02
2018-05-23T09:07:53.855Z,54.40
2018-05-23T09:08:53.863Z,54.21
2018-05-23T09:09:54.588Z,53.85
2018-05-23T09:10:53.796Z,53.53
2018-05-23T09:11:53.825Z,54.05
2018-05-23T09:12:53.760Z,54.82
2018-05-23T09:13:53.737Z,53.95
2018-05-23T09:14:53.714Z,54.05
2018-05-23T09:15:53.700Z,54.62
2018-05-23T09:16:53.734Z,54.33
2018-05-23T09:17:53.656Z,53.47
2018-05-23T09:18:54.593Z,53.75
2018-05-23T09:19:53.611Z,54.53
2018-05-23T09:20:53.590Z,54.33
2018-05-23T09:21:53.614Z,52.69
2018-05-23T09:22:53.600Z,52.69
2018-05-23T09:23:54.092Z,52.98
2018-05-23T09:24:53.520Z,52.79
2018-05-23T09:25:53.492Z,52.21
2018-05-23T09:26:53.469Z,52.59
2018-05-23T09:27:53.487Z,51.92
2018-05-23T09:28:53.433Z,52.11
2018-05-23T09:29:53.417Z,52.53
2018-05-23T09:30:53.392Z,52.91
2018-05-23T09:31:53.375Z,53.78
2018-05-23T09:32:53.407Z,53.39
2018-05-23T09:33:53.332Z,53.11
2018-05-23T09:34:53.356Z,53.69
2018-05-23T09:35:53.292Z,54.07
2018-05-23T09:36:53.320Z,54.27
2018-05-23T09:37:53.259Z,52.43
2018-05-23T09:38:54.096Z,52.23
2018-05-23T09:39:53.217Z,51.85
2018-05-23T09:40:53.202Z,51.65
2018-05-23T09:41:53.221Z,50.79
2018-05-23T09:42:53.186Z,50.31
2018-05-23T09:43:53.650Z,51.27
2018-05-23T09:44:53.118Z,52.53
2018-05-23T09:45:53.097Z,52.04
2018-05-23T09:46:53.138Z,51.75
2018-05-23T09:47:53.054Z,51.37
2018-05-23T09:48:53.617Z,51.37
2018-05-23T09:49:53.017Z,52.23
2018-05-23T09:50:53.002Z,52.33
2018-05-23T09:51:53.024Z,51.65
2018-05-23T09:52:52.964Z,52.33
2018-05-23T09:53:52.942Z,52.43
2018-05-23T09:54:52.974Z,51.75
2018-05-23T09:55:52.896Z,50.50
2018-05-23T09:56:52.874Z,50.89
2018-05-23T09:57:52.859Z,49.73
2018-05-23T09:58:52.838Z,50.31
2018-05-23T09:59:52.881Z,50.31
2018-05-23T10:00:52.797Z,50.33
2018-05-23T10:01:52.786Z,50.33
2018-05-23T10:02:53.608Z,49.65
2018-05-23T10:03:52.741Z,50.23
2018-05-23T10:04:52.776Z,50.33
2018-05-23T10:05:52.700Z,49.75
2018-05-23T10:06:52.683Z,49.49
2018-05-23T10:07:53.609Z,48.97
2018-05-23T10:08:52.646Z,48.71
2018-05-23T10:09:52.696Z,48.21
2018-05-23T10:10:52.604Z,48.39
2018-05-23T10:11:52.591Z,47.43
2018-05-23T10:12:52.564Z,46.88
2018-05-23T10:13:52.546Z,47.36
2018-05-23T10:14:52.575Z,48.13
2018-05-23T10:15:52.504Z,47.94
2018-05-23T10:16:52.485Z,47.84
2018-05-23T10:17:52.510Z,47.94
2018-05-23T10:18:52.452Z,48.23
2018-05-23T10:19:52.431Z,48.32
2018-05-23T10:20:52.409Z,47.67
2018-05-23T10:21:52.428Z,47.77
2018-05-23T10:22:52.370Z,45.64
2018-05-23T10:23:53.110Z,45.93
2018-05-23T10:24:52.339Z,45.83
2018-05-23T10:25:52.363Z,45.74
2018-05-23T10:26:52.351Z,45.83
2018-05-23T10:27:52.277Z,46.22
2018-05-23T10:28:53.118Z,46.51
2018-05-23T10:29:52.242Z,45.74
2018-05-23T10:30:52.218Z,45.06
2018-05-23T10:31:52.252Z,44.87
2018-05-23T10:32:52.190Z,44.57
2018-05-23T10:33:53.118Z,45.93
2018-05-23T10:34:52.152Z,45.64
2018-05-23T10:35:52.164Z,45.83
2018-05-23T10:36:52.154Z,45.37
2018-05-23T10:37:52.089Z,45.95
2018-05-23T10:38:52.106Z,46.05
2018-05-23T10:39:52.055Z,45.66
2018-05-23T10:40:52.041Z,44.79
2018-05-23T10:41:52.013Z,43.05
2018-05-23T10:42:52.048Z,41.21
2018-05-23T10:43:52.623Z,41.70
2018-05-23T10:44:51.971Z,41.89
2018-05-23T10:45:52.180Z,41.79
2018-05-23T10:46:51.981Z,41.99
2018-05-23T10:47:51.920Z,42.28
2018-05-23T10:48:52.169Z,42.76
2018-05-23T10:49:51.861Z,43.34
2018-05-23T10:50:51.903Z,42.57
2018-05-23T10:51:51.828Z,43.73
2018-05-23T10:52:51.809Z,43.63
2018-05-23T10:53:51.839Z,43.54
2018-05-23T10:54:51.770Z,42.66
2018-05-23T10:55:51.749Z,42.96
2018-05-23T10:56:51.739Z,42.47
2018-05-23T10:57:51.716Z,42.18
2018-05-23T10:58:52.191Z,43.34
2018-05-23T10:59:51.677Z,43.34
2018-05-23T11:00:51.664Z,43.63
2018-05-23T11:01:51.636Z,42.96
2018-05-23T11:02:51.664Z,44.12
2018-05-23T11:03:51.656Z,43.92
2018-05-23T11:04:51.586Z,43.82
2018-05-23T11:05:51.578Z,43.05
2018-05-23T11:06:51.558Z,43.63
2018-05-23T11:07:51.535Z,43.05
2018-05-23T11:08:51.641Z,43.34
2018-05-23T11:09:51.535Z,44.02
2018-05-23T11:10:51.474Z,43.63
2018-05-23T11:11:51.453Z,43.92
2018-05-23T11:12:51.442Z,43.92
2018-05-23T11:13:51.417Z,43.54
2018-05-23T11:14:51.499Z,44.21
2018-05-23T11:15:51.381Z,43.15
2018-05-23T11:16:51.371Z,43.34
2018-05-23T11:17:51.385Z,43.73
2018-05-23T11:18:51.324Z,42.47
2018-05-23T11:19:51.323Z,42.96
2018-05-23T11:20:51.288Z,42.96
2018-05-23T11:21:51.269Z,42.47
2018-05-23T11:22:51.304Z,42.37
2018-05-23T11:23:51.232Z,42.76
2018-05-23T11:24:51.215Z,42.37
2018-05-23T11:25:51.184Z,42.37
2018-05-23T11:26:51.167Z,42.28
2018-05-23T11:27:51.190Z,42.08
2018-05-23T11:28:51.129Z,42.28
2018-05-23T11:29:51.175Z,42.66
2018-05-23T11:30:51.134Z,41.89
2018-05-23T11:31:51.071Z,42.47
2018-05-23T11:32:51.056Z,42.47
2018-05-23T11:33:51.040Z,42.37
2018-05-23T11:34:51.032Z,41.99
2018-05-23T11:35:51.047Z,42.28
2018-05-23T11:36:50.978Z,42.96
2018-05-23T11:37:50.956Z,41.89
2018-05-23T11:38:50.936Z,42.37
2018-05-23T11:39:50.925Z,42.57
2018-05-23T11:40:50.942Z,42.57
2018-05-23T11:41:50.881Z,41.99
2018-05-23T11:42:50.867Z,41.99
2018-05-23T11:43:50.843Z,42.28
2018-05-23T11:44:50.824Z,42.57
2018-05-23T11:45:50.897Z,41.02
2018-05-23T11:46:50.792Z,41.99
2018-05-23T11:47:50.765Z,42.08
2018-05-23T11:48:50.743Z,42.57
2018-05-23T11:49:50.728Z,42.18
2018-05-23T11:50:50.781Z,41.79
2018-05-23T11:51:50.691Z,41.99
2018-05-23T11:52:51.636Z,42.57
2018-05-23T11:53:50.650Z,42.96
2018-05-23T11:54:50.629Z,42.57
2018-05-23T11:55:50.665Z,42.37
2018-05-23T11:56:50.611Z,42.28
2018-05-23T11:57:50.682Z,41.02
2018-05-23T11:58:50.553Z,42.57
2018-05-23T11:59:50.536Z,43.07
2018-05-23T12:00:50.513Z,42.49
2018-05-23T12:01:50.617Z,41.82
2018-05-23T12:02:51.141Z,41.24
2018-05-23T12:03:50.464Z,40.94
2018-05-23T12:04:50.437Z,40.84
2018-05-23T12:05:50.423Z,40.65
2018-05-23T12:06:50.443Z,41.33
2018-05-23T12:07:50.701Z,41.24
2018-05-23T12:08:50.362Z,41.52
2018-05-23T12:09:50.353Z,40.75
2018-05-23T12:10:50.328Z,40.26
2018-05-23T12:11:50.311Z,40.17
2018-05-23T12:12:50.709Z,39.78
2018-05-23T12:13:50.270Z,39.97
2018-05-23T12:14:50.253Z,40.75
2018-05-23T12:15:50.237Z,40.94
2018-05-23T12:16:50.211Z,41.45
2018-05-23T12:17:50.245Z,41.64
2018-05-23T12:18:50.221Z,41.83
2018-05-23T12:19:50.214Z,40.67
2018-05-23T12:20:50.134Z,40.28
2018-05-23T12:21:50.120Z,40.09
2018-05-23T12:22:50.100Z,39.61
2018-05-23T12:23:50.083Z,39.51
2018-05-23T12:24:50.108Z,39.51
2018-05-23T12:25:50.048Z,39.12
2018-05-23T12:26:50.027Z,39.22
2018-05-23T12:27:50.007Z,39.22
2018-05-23T12:28:49.986Z,39.12
2018-05-23T12:29:50.025Z,39.22
2018-05-23T12:30:49.957Z,39.22
2018-05-23T12:31:49.932Z,40.09
2018-05-23T12:32:49.915Z,40.00
2018-05-23T12:33:49.900Z,40.77
2018-05-23T12:34:49.935Z,39.51
2018-05-23T12:35:49.906Z,39.12
2018-05-23T12:36:49.841Z,39.61
2018-05-23T12:37:49.822Z,39.80
2018-05-23T12:38:49.803Z,40.00
2018-05-23T12:39:49.782Z,40.07
2018-05-23T12:40:49.834Z,40.26
2018-05-23T12:41:49.745Z,40.48
2018-05-23T12:42:49.726Z,39.49
2018-05-23T12:43:49.711Z,39.80
2018-05-23T12:44:49.689Z,39.51
2018-05-23T12:45:49.728Z,40.09
2018-05-23T12:46:49.652Z,39.70
2018-05-23T12:47:49.635Z,40.00
2018-05-23T12:48:49.616Z,39.12
2018-05-23T12:49:49.599Z,39.32
2018-05-23T12:50:49.624Z,39.03
2018-05-23T12:51:49.558Z,38.45